createdAt,value
2018-07-10T00:00:05.590Z,2.90
2018-07-10T00:01:05.607Z,2.80
2018-07-10T00:02:05.572Z,2.60
2018-07-10T00:03:05.590Z,2.70
2018-07-10T00:04:05.555Z,2.90
2018-07-10T00:05:05.543Z,2.80
2018-07-10T00:06:05.530Z,2.80
2018-07-10T00:07:05.517Z,2.50
2018-07-10T00:08:05.573Z,2.70
2018-07-10T00:09:05.502Z,2.90
2018-07-10T00:10:05.487Z,2.70
2018-07-10T00:11:05.474Z,3.40
2018-07-10T00:12:05.467Z,2.70
2018-07-10T00:13:05.477Z,2.80
2018-07-10T00:14:05.448Z,3.20
2018-07-10T00:15:05.432Z,2.80
2018-07-10T00:16:05.423Z,2.60
2018-07-10T00:17:05.449Z,2.60
2018-07-10T00:18:05.403Z,2.70
2018-07-10T00:19:05.410Z,2.80
2018-07-10T00:20:05.374Z,3.00
2018-07-10T00:21:05.372Z,2.70
2018-07-10T00:22:05.356Z,2.80
2018-07-10T00:23:05.352Z,2.90
2018-07-10T00:24:05.376Z,2.70
2018-07-10T00:25:05.319Z,2.70
2018-07-10T00:26:05.313Z,2.80
2018-07-10T00:27:05.302Z,2.80
2018-07-10T00:28:05.295Z,3.10
2018-07-10T00:29:05.294Z,3.00
2018-07-10T00:30:05.273Z,2.70
2018-07-10T00:31:05.267Z,3.10
2018-07-10T00:32:05.246Z,3.00
2018-07-10T00:33:05.239Z,2.70
2018-07-10T00:34:05.227Z,3.10
2018-07-10T00:35:05.216Z,3.10
2018-07-10T00:36:05.200Z,2.80
2018-07-10T00:37:05.197Z,2.80
2018-07-10T00:38:05.186Z,2.80
2018-07-10T00:39:05.177Z,3.00
2018-07-10T00:40:05.183Z,2.80
2018-07-10T00:41:05.147Z,2.80
2018-07-10T00:42:05.138Z,2.90
2018-07-10T00:43:05.129Z,2.60
2018-07-10T00:44:05.120Z,2.80
2018-07-10T00:45:05.143Z,2.70
2018-07-10T00:46:05.097Z,2.70
2018-07-10T00:47:05.084Z,2.70
2018-07-10T00:48:05.075Z,2.50
2018-07-10T00:49:05.073Z,2.60
2018-07-10T00:50:05.098Z,2.60
2018-07-10T00:51:05.042Z,2.60
2018-07-10T00:52:05.034Z,2.70
2018-07-10T00:53:05.031Z,2.60
2018-07-10T00:54:05.010Z,2.60
2018-07-10T00:55:04.997Z,2.70
2018-07-10T00:56:04.994Z,2.70
2018-07-10T00:57:04.981Z,2.70
2018-07-10T00:58:04.968Z,2.50
2018-07-10T00:59:04.955Z,2.80
2018-07-10T01:00:04.954Z,2.50
2018-07-10T01:01:04.935Z,2.90
2018-07-10T01:02:04.921Z,2.60
2018-07-10T01:03:04.913Z,2.70
2018-07-10T01:04:04.903Z,2.60
2018-07-10T01:05:04.893Z,2.90
2018-07-10T01:06:04.904Z,3.10
2018-07-10T01:07:04.867Z,3.00
2018-07-10T01:08:04.862Z,2.50
2018-07-10T01:09:04.863Z,2.60
2018-07-10T01:10:04.841Z,3.20
2018-07-10T01:11:04.844Z,3.20
2018-07-10T01:12:04.818Z,3.00
2018-07-10T01:13:04.799Z,3.00
2018-07-10T01:14:04.790Z,2.90
2018-07-10T01:15:04.785Z,3.00
2018-07-10T01:16:04.801Z,2.60
2018-07-10T01:17:04.762Z,2.90
2018-07-10T01:18:04.753Z,3.00
2018-07-10T01:19:04.742Z,3.10
2018-07-10T01:20:04.726Z,3.10
2018-07-10T01:21:04.717Z,3.00
2018-07-10T01:22:04.707Z,2.90
2018-07-10T01:23:04.720Z,2.80
2018-07-10T01:24:04.685Z,2.60
2018-07-10T01:25:04.687Z,3.40
2018-07-10T01:26:04.666Z,2.70
2018-07-10T01:27:04.666Z,2.80
2018-07-10T01:28:04.639Z,2.60
2018-07-10T01:29:04.632Z,2.90
2018-07-10T01:30:04.623Z,2.70
2018-07-10T01:31:04.605Z,2.70
2018-07-10T01:32:04.619Z,3.10
2018-07-10T01:33:04.584Z,2.60
2018-07-10T01:34:04.582Z,3.20
2018-07-10T01:35:04.567Z,2.90
2018-07-10T01:36:04.557Z,2.90
2018-07-10T01:37:04.588Z,2.90
2018-07-10T01:38:04.553Z,3.00
2018-07-10T01:39:04.520Z,3.10
2018-07-10T01:40:04.526Z,2.80
2018-07-10T01:41:04.498Z,2.70
2018-07-10T01:42:04.527Z,2.80
2018-07-10T01:43:04.480Z,2.50
2018-07-10T01:44:04.472Z,2.70
2018-07-10T01:45:04.455Z,2.70
2018-07-10T01:46:04.452Z,2.60
2018-07-10T01:47:04.445Z,2.70
2018-07-10T01:48:04.426Z,2.80
2018-07-10T01:49:04.420Z,3.40
2018-07-10T01:50:04.405Z,2.70
2018-07-10T01:51:04.388Z,2.60
2018-07-10T01:52:04.379Z,3.00
2018-07-10T01:53:04.389Z,2.70
2018-07-10T01:54:04.355Z,2.80
2018-07-10T01:55:04.350Z,2.70
2018-07-10T01:56:04.341Z,2.60
2018-07-10T01:57:04.329Z,2.60
2018-07-10T01:58:04.347Z,2.70
2018-07-10T01:59:04.301Z,2.80
2018-07-10T02:00:04.305Z,2.50
2018-07-10T02:01:04.296Z,2.80
2018-07-10T02:02:04.276Z,2.90
2018-07-10T02:03:04.259Z,3.50
2018-07-10T02:04:04.254Z,3.50
2018-07-10T02:05:04.247Z,3.80
2018-07-10T02:06:04.234Z,3.70
2018-07-10T02:07:04.222Z,4.00
2018-07-10T02:08:04.211Z,4.00
2018-07-10T02:09:04.199Z,4.40
2018-07-10T02:10:04.188Z,4.30
2018-07-10T02:11:04.197Z,4.80
2018-07-10T02:12:04.189Z,4.20
2018-07-10T02:13:04.152Z,4.10
2018-07-10T02:14:04.204Z,4.40
2018-07-10T02:15:04.152Z,4.30
2018-07-10T02:16:04.129Z,4.60
2018-07-10T02:17:04.109Z,4.10
2018-07-10T02:18:04.101Z,4.40
2018-07-10T02:19:04.111Z,4.20
2018-07-10T02:20:04.081Z,4.90
2018-07-10T02:21:04.106Z,3.50
2018-07-10T02:22:04.064Z,3.70
2018-07-10T02:23:04.075Z,3.60
2018-07-10T02:24:04.064Z,4.20
2018-07-10T02:25:04.024Z,4.00
2018-07-10T02:26:04.011Z,4.20
2018-07-10T02:27:04.006Z,3.70
2018-07-10T02:28:03.993Z,4.20
2018-07-10T02:29:03.988Z,3.80
2018-07-10T02:30:03.977Z,4.10
2018-07-10T02:31:03.958Z,3.70
2018-07-10T02:32:03.965Z,3.90
2018-07-10T02:33:03.940Z,4.20
2018-07-10T02:34:03.930Z,4.00
2018-07-10T02:35:03.915Z,4.40
2018-07-10T02:36:03.905Z,4.50
2018-07-10T02:37:03.893Z,3.80
2018-07-10T02:38:03.892Z,5.00
2018-07-10T02:39:03.878Z,4.20
2018-07-10T02:40:03.866Z,4.40
2018-07-10T02:41:03.852Z,5.10
2018-07-10T02:42:03.843Z,4.30
2018-07-10T02:43:03.833Z,4.80
2018-07-10T02:44:03.820Z,5.10
2018-07-10T02:45:03.838Z,4.60
2018-07-10T02:46:03.793Z,5.30
2018-07-10T02:47:03.788Z,5.30
2018-07-10T02:48:03.780Z,4.70
2018-07-10T02:49:03.771Z,4.90
2018-07-10T02:50:03.778Z,4.90
2018-07-10T02:51:03.746Z,5.10
2018-07-10T02:52:03.734Z,5.30
2018-07-10T02:53:03.723Z,5.60
2018-07-10T02:54:03.713Z,5.60
2018-07-10T02:55:03.697Z,5.20
2018-07-10T02:56:03.690Z,4.70
2018-07-10T02:57:03.677Z,4.70
2018-07-10T02:58:03.665Z,4.60
2018-07-10T02:59:03.659Z,4.30
2018-07-10T03:00:03.669Z,4.40
2018-07-10T03:01:03.638Z,4.00
2018-07-10T03:02:03.632Z,4.30
2018-07-10T03:03:03.612Z,4.20
2018-07-10T03:04:03.605Z,4.10
2018-07-10T03:05:03.592Z,3.70
2018-07-10T03:06:03.591Z,3.70
2018-07-10T03:07:03.570Z,3.60
2018-07-10T03:08:03.557Z,4.10
2018-07-10T03:09:03.546Z,3.80
2018-07-10T03:10:03.553Z,3.70
2018-07-10T03:11:03.598Z,4.10
2018-07-10T03:12:03.542Z,3.20
2018-07-10T03:13:03.505Z,3.50
2018-07-10T03:14:03.499Z,3.50
2018-07-10T03:15:03.479Z,3.70
2018-07-10T03:16:03.492Z,3.10
2018-07-10T03:17:03.464Z,3.50
2018-07-10T03:18:03.447Z,3.40
2018-07-10T03:19:03.442Z,3.10
2018-07-10T03:20:03.431Z,3.80
2018-07-10T03:21:03.417Z,3.70
2018-07-10T03:22:03.408Z,3.50
2018-07-10T03:23:03.419Z,4.60
2018-07-10T03:24:03.387Z,3.40
2018-07-10T03:25:03.377Z,3.70
2018-07-10T03:26:03.369Z,3.10
2018-07-10T03:27:03.360Z,3.00
2018-07-10T03:28:03.341Z,3.20
2018-07-10T03:29:03.341Z,3.60
2018-07-10T03:30:03.317Z,3.40
2018-07-10T03:31:03.319Z,3.20
2018-07-10T03:32:03.357Z,3.20
2018-07-10T03:33:03.297Z,3.60
2018-07-10T03:34:03.279Z,3.20
2018-07-10T03:35:03.265Z,3.20
2018-07-10T03:36:03.257Z,3.20
2018-07-10T03:37:03.262Z,3.30
2018-07-10T03:38:03.236Z,3.00
2018-07-10T03:39:03.220Z,3.50
2018-07-10T03:40:03.216Z,3.90
2018-07-10T03:41:03.204Z,3.40
2018-07-10T03:42:03.220Z,3.80
2018-07-10T03:43:03.183Z,3.50
2018-07-10T03:44:03.182Z,3.50
2018-07-10T03:45:03.185Z,3.50
2018-07-10T03:46:03.205Z,4.10
2018-07-10T03:47:03.190Z,4.00
2018-07-10T03:48:03.127Z,3.90
2018-07-10T03:49:03.114Z,3.90
2018-07-10T03:50:03.102Z,3.30
2018-07-10T03:51:03.098Z,3.70
2018-07-10T03:52:03.120Z,3.60
2018-07-10T03:53:03.069Z,3.30
2018-07-10T03:54:03.058Z,3.20
2018-07-10T03:55:03.052Z,3.50
2018-07-10T03:56:03.045Z,3.50
2018-07-10T03:57:03.028Z,3.40
2018-07-10T03:58:03.024Z,3.30
2018-07-10T03:59:03.001Z,3.30
2018-07-10T04:00:03.010Z,3.50
2018-07-10T04:01:02.985Z,3.20
2018-07-10T04:02:02.977Z,3.30
2018-07-10T04:03:03.022Z,3.40
2018-07-10T04:04:02.952Z,2.90
2018-07-10T04:05:02.945Z,3.40
2018-07-10T04:06:02.935Z,3.20
2018-07-10T04:07:02.916Z,3.40
2018-07-10T04:08:02.942Z,2.80
2018-07-10T04:09:02.905Z,3.20
2018-07-10T04:10:02.889Z,2.60
2018-07-10T04:11:02.873Z,2.80
2018-07-10T04:12:02.865Z,2.90
2018-07-10T04:13:02.918Z,3.00
2018-07-10T04:14:02.842Z,2.80
2018-07-10T04:15:02.847Z,2.70
2018-07-10T04:16:02.823Z,2.90
2018-07-10T04:17:02.812Z,2.70
2018-07-10T04:18:02.805Z,2.70
2018-07-10T04:19:02.801Z,2.70
2018-07-10T04:20:02.776Z,2.90
2018-07-10T04:21:02.778Z,2.50
2018-07-10T04:22:02.753Z,2.80
2018-07-10T04:23:02.764Z,2.30
2018-07-10T04:24:02.750Z,2.50
2018-07-10T04:25:02.722Z,2.90
2018-07-10T04:26:02.709Z,3.00
2018-07-10T04:27:02.710Z,2.60
2018-07-10T04:28:02.694Z,2.80
2018-07-10T04:29:02.771Z,2.60
2018-07-10T04:30:02.701Z,2.50
2018-07-10T04:31:02.660Z,2.60
2018-07-10T04:32:02.663Z,2.50
2018-07-10T04:33:02.684Z,2.30
2018-07-10T04:34:02.647Z,2.80
2018-07-10T04:35:02.629Z,2.30
2018-07-10T04:36:02.606Z,2.30
2018-07-10T04:37:02.597Z,2.50
2018-07-10T04:38:02.599Z,2.40
2018-07-10T04:39:02.571Z,2.60
2018-07-10T04:40:02.561Z,2.60
2018-07-10T04:41:02.552Z,2.40
2018-07-10T04:42:02.549Z,2.30
2018-07-10T04:43:02.526Z,2.30
2018-07-10T04:44:02.535Z,2.50
2018-07-10T04:45:02.508Z,2.40
2018-07-10T04:46:02.493Z,2.50
2018-07-10T04:47:02.497Z,2.70
2018-07-10T04:48:02.489Z,2.70
2018-07-10T04:49:02.498Z,2.70
2018-07-10T04:50:02.458Z,2.50
2018-07-10T04:51:02.443Z,2.30
2018-07-10T04:52:02.442Z,2.70
2018-07-10T04:53:02.419Z,2.60
2018-07-10T04:54:02.409Z,2.60
2018-07-10T04:55:02.410Z,2.80
2018-07-10T04:56:02.394Z,2.70
2018-07-10T04:57:02.377Z,2.80
2018-07-10T04:58:02.366Z,2.50
2018-07-10T04:59:02.381Z,2.70
2018-07-10T05:00:02.353Z,2.40
2018-07-10T05:01:02.359Z,2.40
2018-07-10T05:02:02.325Z,2.60
2018-07-10T05:03:02.319Z,2.60
2018-07-10T05:04:02.299Z,2.60
2018-07-10T05:05:02.307Z,2.60
2018-07-10T05:06:02.287Z,2.60
2018-07-10T05:07:02.271Z,2.40
2018-07-10T05:08:02.266Z,2.50
2018-07-10T05:09:02.266Z,2.90
2018-07-10T05:10:02.279Z,2.50
2018-07-10T05:11:02.236Z,2.60
2018-07-10T05:12:02.236Z,2.60
2018-07-10T05:13:02.210Z,2.50
2018-07-10T05:14:02.198Z,2.40
2018-07-10T05:15:02.236Z,2.30
2018-07-10T05:16:02.230Z,2.30
2018-07-10T05:17:02.175Z,2.50
2018-07-10T05:18:02.183Z,2.40
2018-07-10T05:19:02.181Z,2.20
2018-07-10T05:20:02.136Z,2.10
2018-07-10T05:21:02.171Z,2.50
2018-07-10T05:22:02.109Z,2.50
2018-07-10T05:23:02.111Z,2.70
2018-07-10T05:24:02.090Z,2.60
2018-07-10T05:25:02.076Z,2.40
2018-07-10T05:26:02.100Z,2.80
2018-07-10T05:27:02.057Z,2.40
2018-07-10T05:28:02.046Z,2.40
2018-07-10T05:29:02.113Z,2.40
2018-07-10T05:30:02.029Z,2.70
2018-07-10T05:31:02.038Z,2.50
2018-07-10T05:32:02.004Z,2.40
2018-07-10T05:33:01.998Z,2.20
2018-07-10T05:34:01.987Z,2.80
2018-07-10T05:35:01.966Z,2.80
2018-07-10T05:36:01.981Z,2.50
2018-07-10T05:37:01.987Z,2.60
2018-07-10T05:38:01.948Z,2.70
2018-07-10T05:39:01.925Z,2.20
2018-07-10T05:40:01.917Z,2.40
2018-07-10T05:41:01.928Z,2.60
2018-07-10T05:42:01.899Z,2.50
2018-07-10T05:43:01.926Z,2.50
2018-07-10T05:44:01.869Z,2.70
2018-07-10T05:45:01.862Z,2.50
2018-07-10T05:46:01.884Z,2.60
2018-07-10T05:47:01.839Z,2.70
2018-07-10T05:48:01.833Z,2.60
2018-07-10T05:49:01.811Z,2.60
2018-07-10T05:50:01.805Z,2.70
2018-07-10T05:51:01.798Z,2.90
2018-07-10T05:52:01.793Z,2.80
2018-07-10T05:53:01.795Z,2.80
2018-07-10T05:54:01.763Z,2.70
2018-07-10T05:55:01.749Z,2.60
2018-07-10T05:56:01.751Z,2.50
2018-07-10T05:57:01.751Z,2.50
2018-07-10T05:58:01.725Z,2.50
2018-07-10T05:59:01.725Z,2.60
2018-07-10T06:00:01.701Z,2.00
2018-07-10T06:01:01.696Z,2.40
2018-07-10T06:02:01.675Z,2.50
2018-07-10T06:03:01.667Z,2.70
2018-07-10T06:04:01.656Z,2.30
2018-07-10T06:05:01.664Z,2.50
2018-07-10T06:06:01.639Z,2.70
2018-07-10T06:07:01.650Z,2.40
2018-07-10T06:08:01.608Z,2.30
2018-07-10T06:09:01.601Z,2.10
2018-07-10T06:10:01.585Z,1.90
2018-07-10T06:11:01.580Z,2.40
2018-07-10T06:12:01.597Z,2.40
2018-07-10T06:13:01.560Z,2.30
2018-07-10T06:14:01.604Z,2.30
2018-07-10T06:15:01.537Z,1.90
2018-07-10T06:16:01.521Z,2.10
2018-07-10T06:17:01.522Z,2.30
2018-07-10T06:18:01.511Z,2.30
2018-07-10T06:19:01.509Z,1.90
2018-07-10T06:20:01.480Z,2.10
2018-07-10T06:21:01.466Z,2.10
2018-07-10T06:22:01.459Z,2.10
2018-07-10T06:23:01.454Z,2.10
2018-07-10T06:24:01.444Z,1.90
2018-07-10T06:25:01.433Z,2.10
2018-07-10T06:26:01.423Z,2.00
2018-07-10T06:27:01.413Z,2.00
2018-07-10T06:28:01.410Z,2.00
2018-07-10T06:29:01.383Z,2.20
2018-07-10T06:30:01.384Z,2.20
2018-07-10T06:31:01.363Z,2.10
2018-07-10T06:32:01.356Z,2.10
2018-07-10T06:33:01.356Z,2.10
2018-07-10T06:34:01.328Z,2.10
2018-07-10T06:35:01.321Z,2.00
2018-07-10T06:36:01.328Z,2.10
2018-07-10T06:37:01.301Z,2.60
2018-07-10T06:38:01.307Z,2.00
2018-07-10T06:39:01.286Z,1.90
2018-07-10T06:40:01.281Z,2.10
2018-07-10T06:41:01.251Z,2.10
2018-07-10T06:42:01.244Z,1.90
2018-07-10T06:43:01.264Z,2.00
2018-07-10T06:44:01.226Z,2.30
2018-07-10T06:45:01.219Z,2.10
2018-07-10T06:46:01.201Z,2.00
2018-07-10T06:47:01.187Z,2.30
2018-07-10T06:48:01.187Z,1.80
2018-07-10T06:49:01.188Z,2.10
2018-07-10T06:50:01.171Z,2.00
2018-07-10T06:51:01.154Z,2.00
2018-07-10T06:52:01.155Z,2.20
2018-07-10T06:53:01.463Z,2.00
2018-07-10T06:54:01.118Z,2.20
2018-07-10T06:55:01.101Z,2.00
2018-07-10T06:56:01.093Z,2.20
2018-07-10T06:57:01.094Z,2.40
2018-07-10T06:58:01.068Z,2.20
2018-07-10T06:59:01.056Z,2.00
2018-07-10T07:00:01.041Z,2.30
2018-07-10T07:01:01.063Z,2.20
2018-07-10T07:02:01.040Z,2.20
2018-07-10T07:03:01.020Z,2.20
2018-07-10T07:04:01.005Z,2.50
2018-07-10T07:05:00.987Z,2.60
2018-07-10T07:06:00.977Z,2.10
2018-07-10T07:07:00.974Z,2.30
2018-07-10T07:08:01.063Z,2.00
2018-07-10T07:09:00.959Z,2.90
2018-07-10T07:10:00.957Z,2.40
2018-07-10T07:11:00.925Z,2.30
2018-07-10T07:12:00.910Z,2.30
2018-07-10T07:13:00.895Z,2.30
2018-07-10T07:14:00.890Z,2.20
2018-07-10T07:15:00.884Z,2.00
2018-07-10T07:16:00.888Z,2.40
2018-07-10T07:17:00.860Z,2.30
2018-07-10T07:18:00.846Z,2.30
2018-07-10T07:19:00.839Z,2.30
2018-07-10T07:20:00.850Z,2.30
2018-07-10T07:21:00.824Z,2.30
2018-07-10T07:22:00.809Z,2.80
2018-07-10T07:23:00.789Z,2.70
2018-07-10T07:24:00.799Z,2.40
2018-07-10T07:25:00.765Z,2.60
2018-07-10T07:26:00.768Z,2.70
2018-07-10T07:27:00.749Z,2.70
2018-07-10T07:28:00.751Z,2.20
2018-07-10T07:29:00.760Z,2.50
2018-07-10T07:30:00.753Z,2.40
2018-07-10T07:31:00.713Z,2.50
2018-07-10T07:32:00.693Z,2.30
2018-07-10T07:33:00.681Z,2.20
2018-07-10T07:34:00.701Z,2.60
2018-07-10T07:35:00.804Z,2.70
2018-07-10T07:36:00.657Z,2.60
2018-07-10T07:37:00.660Z,2.60
2018-07-10T07:38:00.632Z,2.80
2018-07-10T07:39:00.637Z,2.60
2018-07-10T07:40:00.637Z,2.60
2018-07-10T07:41:00.627Z,2.70
2018-07-10T07:42:00.591Z,2.90
2018-07-10T07:43:00.590Z,2.80
2018-07-10T07:44:00.796Z,2.70
2018-07-10T07:45:00.565Z,2.90
2018-07-10T07:46:00.544Z,2.90
2018-07-10T07:47:00.540Z,2.90
2018-07-10T07:48:00.527Z,3.00
2018-07-10T07:49:00.654Z,3.10
2018-07-10T07:50:00.533Z,3.20
2018-07-10T07:51:00.489Z,3.90
2018-07-10T07:52:00.476Z,3.30
2018-07-10T07:53:00.478Z,3.30
2018-07-10T07:54:00.460Z,3.70
2018-07-10T07:55:00.478Z,3.60
2018-07-10T07:56:00.436Z,3.60
2018-07-10T07:57:00.422Z,3.80
2018-07-10T07:58:00.416Z,3.70
2018-07-10T07:59:00.412Z,3.70
2018-07-10T08:00:00.435Z,3.60
2018-07-10T08:01:00.386Z,3.70
2018-07-10T08:02:00.392Z,3.20
2018-07-10T08:03:00.371Z,3.20
2018-07-10T08:04:00.381Z,3.60
2018-07-10T08:05:00.364Z,3.60
2018-07-10T08:06:00.337Z,3.50
2018-07-10T08:07:00.321Z,3.50
2018-07-10T08:08:00.324Z,3.60
2018-07-10T08:09:00.292Z,3.70
2018-07-10T08:10:00.303Z,3.70
2018-07-10T08:11:00.275Z,3.90
2018-07-10T08:12:00.273Z,4.30
2018-07-10T08:13:00.265Z,4.70
2018-07-10T08:14:00.268Z,4.70
2018-07-10T08:15:00.293Z,4.40
2018-07-10T08:16:00.245Z,4.70
2018-07-10T08:17:00.209Z,5.10
2018-07-10T08:18:00.220Z,4.90
2018-07-10T08:19:00.190Z,4.60
2018-07-10T08:20:00.183Z,4.60
2018-07-10T08:21:00.184Z,4.80
2018-07-10T08:22:00.159Z,4.70
2018-07-10T08:23:00.166Z,5.10
2018-07-10T08:24:00.190Z,4.30
2018-07-10T08:25:00.161Z,4.00
2018-07-10T08:26:00.184Z,4.50
2018-07-10T08:27:00.105Z,4.70
2018-07-10T08:28:00.090Z,4.30
2018-07-10T08:29:00.080Z,4.30
2018-07-10T08:30:00.079Z,4.60
2018-07-10T08:31:00.073Z,4.80
2018-07-10T08:32:00.052Z,4.70
2018-07-10T08:33:00.041Z,4.90
2018-07-10T08:34:00.087Z,4.90
2018-07-10T08:35:00.018Z,6.00
2018-07-10T08:36:00.010Z,5.40
2018-07-10T08:36:59.998Z,5.70
2018-07-10T08:37:59.983Z,5.00
2018-07-10T08:38:59.973Z,5.40
2018-07-10T08:39:59.961Z,6.20
2018-07-10T08:40:59.957Z,5.50
2018-07-10T08:41:59.941Z,6.50
2018-07-10T08:42:59.934Z,6.30
2018-07-10T08:43:59.922Z,6.60
2018-07-10T08:44:59.961Z,7.80
2018-07-10T08:45:59.914Z,7.60
2018-07-10T08:46:59.884Z,8.00
2018-07-10T08:47:59.873Z,6.30
2018-07-10T08:48:59.865Z,6.70
2018-07-10T08:49:59.862Z,6.00
2018-07-10T08:50:59.877Z,6.40
2018-07-10T08:51:59.837Z,6.40
2018-07-10T08:52:59.825Z,5.60
2018-07-10T08:53:59.814Z,6.30
2018-07-10T08:54:59.797Z,5.80
2018-07-10T08:55:59.815Z,6.20
2018-07-10T08:56:59.783Z,7.00
2018-07-10T08:57:59.771Z,5.50
2018-07-10T08:58:59.759Z,6.00
2018-07-10T08:59:59.751Z,6.50
2018-07-10T09:00:59.756Z,6.70
2018-07-10T09:01:59.729Z,6.60
2018-07-10T09:02:59.732Z,6.60
2018-07-10T09:03:59.736Z,7.50
2018-07-10T09:04:59.701Z,6.60
2018-07-10T09:05:59.682Z,7.10
2018-07-10T09:06:59.695Z,6.20
2018-07-10T09:07:59.689Z,6.50
2018-07-10T09:08:59.666Z,5.90
2018-07-10T09:09:59.639Z,6.40
2018-07-10T09:10:59.631Z,6.10
2018-07-10T09:11:59.648Z,7.40
2018-07-10T09:12:59.604Z,8.00
2018-07-10T09:13:59.624Z,7.00
2018-07-10T09:14:59.584Z,7.20
2018-07-10T09:15:59.592Z,7.10
2018-07-10T09:16:59.572Z,6.50
2018-07-10T09:17:59.552Z,7.10
2018-07-10T09:18:59.541Z,6.90
2018-07-10T09:19:59.524Z,8.00
2018-07-10T09:20:59.520Z,6.50
2018-07-10T09:21:59.533Z,6.60
2018-07-10T09:22:59.502Z,6.50
2018-07-10T09:23:59.488Z,6.30
2018-07-10T09:24:59.487Z,6.60
2018-07-10T09:25:59.465Z,6.00
2018-07-10T09:26:59.477Z,6.50
2018-07-10T09:27:59.477Z,6.60
2018-07-10T09:28:59.452Z,6.00
2018-07-10T09:29:59.419Z,7.10
2018-07-10T09:30:59.419Z,7.10
2018-07-10T09:31:59.473Z,6.40
2018-07-10T09:32:59.390Z,6.50
2018-07-10T09:33:59.379Z,6.00
2018-07-10T09:34:59.369Z,6.60
2018-07-10T09:35:59.359Z,5.60
2018-07-10T09:36:59.355Z,6.20
2018-07-10T09:37:59.381Z,6.20
2018-07-10T09:38:59.320Z,6.60
2018-07-10T09:39:59.330Z,5.10
2018-07-10T09:40:59.305Z,5.70
2018-07-10T09:41:59.301Z,5.20
2018-07-10T09:42:59.293Z,6.20
2018-07-10T09:43:59.325Z,7.70
2018-07-10T09:44:59.258Z,7.10
2018-07-10T09:45:59.257Z,6.10
2018-07-10T09:46:59.246Z,5.40
2018-07-10T09:47:59.285Z,6.10
2018-07-10T09:48:59.257Z,6.70
2018-07-10T09:49:59.228Z,6.70
2018-07-10T09:50:59.189Z,7.20
2018-07-10T09:51:59.178Z,7.50
2018-07-10T09:52:59.205Z,7.40
2018-07-10T09:53:59.168Z,7.40
2018-07-10T09:54:59.356Z,8.30
2018-07-10T09:55:59.154Z,7.90
2018-07-10T09:56:59.156Z,7.40
2018-07-10T09:57:59.146Z,8.70
2018-07-10T09:58:59.122Z,8.10
2018-07-10T09:59:59.131Z,8.10
2018-07-10T10:00:59.084Z,8.60
2018-07-10T10:01:59.151Z,8.50
2018-07-10T10:02:59.058Z,8.90
2018-07-10T10:03:59.054Z,8.10
2018-07-10T10:04:59.066Z,8.90
2018-07-10T10:05:59.051Z,9.20
2018-07-10T10:06:59.053Z,8.70
2018-07-10T10:07:59.014Z,10.50
2018-07-10T10:08:59.018Z,8.50
2018-07-10T10:09:59.033Z,10.90
2018-07-10T10:10:58.972Z,8.70
2018-07-10T10:11:58.960Z,8.80
2018-07-10T10:12:58.958Z,10.00
2018-07-10T10:13:58.965Z,10.80
2018-07-10T10:14:58.946Z,9.10
2018-07-10T10:15:58.920Z,9.70
2018-07-10T10:16:58.910Z,9.10
2018-07-10T10:17:58.912Z,9.70
2018-07-10T10:18:58.899Z,9.10
2018-07-10T10:19:58.888Z,7.80
2018-07-10T10:20:58.874Z,8.30
2018-07-10T10:21:58.855Z,8.40
2018-07-10T10:22:58.854Z,8.40
2018-07-10T10:23:58.833Z,9.00
2018-07-10T10:24:58.829Z,6.80
2018-07-10T10:25:58.816Z,8.90
2018-07-10T10:26:58.809Z,7.50
2018-07-10T10:27:58.795Z,6.70
2018-07-10T10:28:58.785Z,7.00
2018-07-10T10:29:58.775Z,7.60
2018-07-10T10:30:58.754Z,7.50
2018-07-10T10:31:58.751Z,6.60
2018-07-10T10:32:58.744Z,6.40
2018-07-10T10:33:58.737Z,7.70
2018-07-10T10:34:58.713Z,6.30
2018-07-10T10:35:58.700Z,6.30
2018-07-10T10:36:58.695Z,6.10
2018-07-10T10:37:58.699Z,6.30
2018-07-10T10:38:58.685Z,6.40
2018-07-10T10:39:58.665Z,5.90
2018-07-10T10:40:58.651Z,5.60
2018-07-10T10:41:58.645Z,5.10
2018-07-10T10:42:58.658Z,5.70
2018-07-10T10:43:58.639Z,5.60
2018-07-10T10:44:58.630Z,5.60
2018-07-10T10:45:58.642Z,5.60
2018-07-10T10:46:58.589Z,5.70
2018-07-10T10:47:58.570Z,5.90
2018-07-10T10:48:58.589Z,7.10
2018-07-10T10:49:58.554Z,5.30
2018-07-10T10:50:58.557Z,5.60
2018-07-10T10:51:58.569Z,6.50
2018-07-10T10:52:58.521Z,5.80
2018-07-10T10:53:58.508Z,6.20
2018-07-10T10:54:58.529Z,5.60
2018-07-10T10:55:58.488Z,5.70
2018-07-10T10:56:58.495Z,5.30
2018-07-10T10:57:58.465Z,5.50
2018-07-10T10:58:58.459Z,6.00
2018-07-10T10:59:58.453Z,5.80
2018-07-10T11:00:58.464Z,5.50
2018-07-10T11:01:58.424Z,5.30
2018-07-10T11:02:58.409Z,5.90
2018-07-10T11:03:58.405Z,6.00
2018-07-10T11:04:58.398Z,6.00
2018-07-10T11:05:58.380Z,6.50
2018-07-10T11:06:58.368Z,6.00
2018-07-10T11:07:58.359Z,5.90
2018-07-10T11:08:58.346Z,6.10
2018-07-10T11:09:58.359Z,6.30
2018-07-10T11:10:58.338Z,6.00
2018-07-10T11:11:58.344Z,6.30
2018-07-10T11:12:58.385Z,6.40
2018-07-10T11:13:58.293Z,7.10
2018-07-10T11:14:58.361Z,7.20
2018-07-10T11:15:58.268Z,6.40
2018-07-10T11:16:58.262Z,6.10
2018-07-10T11:17:58.253Z,6.40
2018-07-10T11:18:58.248Z,6.90
2018-07-10T11:19:58.272Z,7.80
2018-07-10T11:20:58.218Z,6.30
2018-07-10T11:21:58.210Z,5.90
2018-07-10T11:22:58.203Z,6.30
2018-07-10T11:23:58.195Z,6.60
2018-07-10T11:24:58.175Z,5.60
2018-07-10T11:25:58.169Z,6.90
2018-07-10T11:26:58.149Z,6.20
2018-07-10T11:27:58.152Z,7.20
2018-07-10T11:28:58.131Z,6.10
2018-07-10T11:29:58.139Z,6.10
2018-07-10T11:30:58.440Z,6.10
2018-07-10T11:31:58.118Z,6.40
2018-07-10T11:32:58.131Z,6.40
2018-07-10T11:33:58.114Z,6.30
2018-07-10T11:34:58.060Z,6.80
2018-07-10T11:35:58.142Z,6.10
2018-07-10T11:36:58.050Z,6.30
2018-07-10T11:37:58.057Z,7.40
2018-07-10T11:38:58.019Z,6.30
2018-07-10T11:39:58.012Z,6.00
2018-07-10T11:40:58.019Z,7.00
2018-07-10T11:41:57.998Z,6.00
2018-07-10T11:42:57.988Z,6.00
2018-07-10T11:43:57.971Z,6.30
2018-07-10T11:44:57.957Z,6.40
2018-07-10T11:45:57.978Z,6.20
2018-07-10T11:46:57.936Z,6.70
2018-07-10T11:47:57.926Z,6.10
2018-07-10T11:48:57.934Z,6.20
2018-07-10T11:49:57.903Z,6.50
2018-07-10T11:50:57.896Z,7.20
2018-07-10T11:51:57.882Z,7.40
2018-07-10T11:52:57.877Z,6.60
2018-07-10T11:53:57.896Z,7.20
2018-07-10T11:54:57.882Z,7.30
2018-07-10T11:55:57.845Z,7.80
2018-07-10T11:56:57.843Z,8.70
2018-07-10T11:57:57.813Z,8.20
2018-07-10T11:58:57.806Z,9.50
2018-07-10T11:59:57.798Z,11.30
2018-07-10T12:00:57.790Z,9.50
2018-07-10T12:01:57.856Z,8.90
2018-07-10T12:02:57.774Z,9.10
2018-07-10T12:03:57.787Z,8.90
2018-07-10T12:04:57.871Z,9.90
2018-07-10T12:05:57.794Z,9.50
2018-07-10T12:06:57.737Z,8.20
2018-07-10T12:07:57.713Z,10.50
2018-07-10T12:08:57.697Z,9.70
2018-07-10T12:09:57.686Z,9.50
2018-07-10T12:10:57.674Z,10.00
2018-07-10T12:11:57.693Z,10.80
2018-07-10T12:12:57.652Z,10.20
2018-07-10T12:13:58.417Z,10.80
2018-07-10T12:14:57.665Z,10.60
2018-07-10T12:15:57.657Z,8.60
2018-07-10T12:16:57.613Z,9.90
2018-07-10T12:17:57.614Z,9.60
2018-07-10T12:18:57.607Z,9.40
2018-07-10T12:19:57.576Z,10.80
2018-07-10T12:20:57.572Z,10.00
2018-07-10T12:21:57.556Z,9.90
2018-07-10T12:22:57.556Z,10.50
2018-07-10T12:23:57.531Z,11.20
2018-07-10T12:24:57.525Z,11.70
2018-07-10T12:25:57.520Z,10.20
2018-07-10T12:26:57.505Z,10.60
2018-07-10T12:27:57.575Z,11.00
2018-07-10T12:28:57.485Z,9.40
2018-07-10T12:29:57.476Z,10.90
2018-07-10T12:30:57.466Z,10.10
2018-07-10T12:31:57.447Z,10.80
2018-07-10T12:32:57.456Z,9.00
2018-07-10T12:33:57.438Z,10.80
2018-07-10T12:34:57.461Z,9.50
2018-07-10T12:35:57.413Z,9.20
2018-07-10T12:36:57.424Z,10.40
2018-07-10T12:37:57.400Z,10.10
2018-07-10T12:38:57.370Z,9.30
2018-07-10T12:39:57.364Z,9.30
2018-07-10T12:40:57.350Z,8.80
2018-07-10T12:41:57.337Z,11.00
2018-07-10T12:42:57.367Z,12.90
2018-07-10T12:43:57.313Z,10.90
2018-07-10T12:44:57.308Z,10.90
2018-07-10T12:45:57.295Z,10.70
2018-07-10T12:46:57.287Z,10.50
2018-07-10T12:47:57.280Z,11.80
2018-07-10T12:48:57.280Z,11.70
2018-07-10T12:49:57.250Z,11.80
2018-07-10T12:50:57.241Z,10.90
2018-07-10T12:51:57.228Z,10.70
2018-07-10T12:52:57.223Z,12.20
2018-07-10T12:53:57.214Z,11.80
2018-07-10T12:54:57.201Z,12.20
2018-07-10T12:55:57.183Z,14.90
2018-07-10T12:56:57.193Z,13.50
2018-07-10T12:57:57.169Z,12.00
2018-07-10T12:58:57.161Z,12.70
2018-07-10T12:59:57.149Z,12.30
2018-07-10T13:00:57.148Z,12.20
2018-07-10T13:01:57.127Z,14.50
2018-07-10T13:02:57.127Z,14.30
2018-07-10T13:03:57.108Z,15.00
2018-07-10T13:04:57.099Z,14.50
2018-07-10T13:05:57.098Z,12.30
2018-07-10T13:06:57.098Z,11.40
2018-07-10T13:07:57.094Z,11.80
2018-07-10T13:08:57.064Z,14.90
2018-07-10T13:09:57.037Z,13.10
2018-07-10T13:10:57.045Z,11.60
2018-07-10T13:11:57.028Z,11.60
2018-07-10T13:12:57.005Z,11.60
2018-07-10T13:13:57.013Z,12.40
2018-07-10T13:14:56.980Z,11.30
2018-07-10T13:15:56.974Z,10.30